Time;durP1;ratioP1;P1;durP2;ratioP2;P2;SDS_P1;SDS_P2;PMS_P1;PMS_P2;Temp;Humidity;BMP_temperature;BMP_pressure;BME280_temperature;BME280_humidity;BME280_pressure;Samples;Min_cycle;Max_cycle;Signal;HPM_P1;HPM_P2
2021/10/22 00:00:48;;;;;;;7.10;3.53;;;5.00;99.90;;;;;;5087981;28;20077;-67
2021/10/22 00:03:16;;;;;;;6.65;3.03;;;5.00;99.90;;;;;;5088992;28;20052;-68
2021/10/22 00:05:43;;;;;;;6.85;3.47;;;4.90;99.90;;;;;;5087010;28;20059;-67
2021/10/22 00:08:09;;;;;;;7.88;3.10;;;4.90;99.90;;;;;;5088536;28;20044;-70
2021/10/22 00:10:36;;;;;;;5.25;3.50;;;4.90;99.90;;;;;;5087725;28;20075;-68
2021/10/22 00:13:03;;;;;;;6.47;3.35;;;4.90;99.90;;;;;;5070339;28;20093;-67
2021/10/22 00:15:31;;;;;;;7.93;3.10;;;4.90;99.90;;;;;;5088940;28;20475;-68
2021/10/22 00:18:00;;;;;;;7.38;3.30;;;4.90;99.90;;;;;;5088211;28;20055;-67
2021/10/22 00:20:27;;;;;;;6.85;2.70;;;5.00;99.90;;;;;;5088626;28;20048;-67
2021/10/22 00:22:54;;;;;;;7.22;3.30;;;4.90;99.90;;;;;;5088299;28;20040;-67
2021/10/22 00:25:21;;;;;;;8.85;2.97;;;4.90;99.90;;;;;;5088233;28;20086;-67
2021/10/22 00:27:50;;;;;;;7.38;3.30;;;4.90;99.90;;;;;;5090039;28;20048;-68
2021/10/22 00:30:17;;;;;;;7.97;3.28;;;4.90;99.90;;;;;;5087960;28;20081;-67
2021/10/22 00:32:47;;;;;;;9.10;3.38;;;5.00;99.90;;;;;;5089237;28;20056;-68
2021/10/22 00:35:14;;;;;;;;;;;5.00;99.90;;;;;;5089933;28;20044;-67
2021/10/22 00:37:41;;;;;;;10.25;3.85;;;5.00;99.90;;;;;;5088875;28;19919;-67
2021/10/22 00:40:13;;;;;;;5.55;2.97;;;5.00;99.90;;;;;;5088605;28;20051;-66
2021/10/22 00:42:40;;;;;;;8.63;3.45;;;4.90;99.90;;;;;;5087432;28;20059;-68
2021/10/22 00:45:08;;;;;;;8.77;3.88;;;4.90;99.90;;;;;;5087172;28;20062;-66
2021/10/22 00:47:36;;;;;;;6.68;3.42;;;4.90;99.90;;;;;;5087113;28;20847;-67
2021/10/22 00:50:03;;;;;;;13.20;3.60;;;5.00;99.90;;;;;;5087921;28;20055;-67
2021/10/22 00:52:31;;;;;;;9.20;3.80;;;5.00;99.90;;;;;;5070966;28;20048;-67
2021/10/22 00:54:57;;;;;;;8.73;3.35;;;5.00;99.90;;;;;;5086699;28;20052;-67
2021/10/22 00:57:24;;;;;;;7.93;3.80;;;5.00;99.90;;;;;;5094667;28;20047;-66
2021/10/22 00:59:51;;;;;;;15.00;3.08;;;5.00;99.90;;;;;;5086577;28;20052;-66
2021/10/22 01:02:19;;;;;;;7.55;2.67;;;5.00;99.90;;;;;;5089018;28;20044;-67
2021/10/22 01:04:46;;;;;;;6.60;2.80;;;5.00;99.90;;;;;;5089448;28;20093;-66
2021/10/22 01:07:16;;;;;;;8.18;3.47;;;5.00;99.90;;;;;;5086784;28;20202;-66
2021/10/22 01:09:46;;;;;;;9.23;2.90;;;5.00;99.90;;;;;;5086548;28;20381;-67
2021/10/22 01:12:13;;;;;;;11.70;3.38;;;5.00;99.90;;;;;;5087503;28;20499;-66
2021/10/22 01:14:41;;;;;;;9.98;2.92;;;5.00;99.90;;;;;;5086804;28;20040;-67
2021/10/22 01:17:28;;;;;;;10.65;4.38;;;5.00;99.90;;;;;;5087724;28;20098;-66
2021/10/22 01:19:54;;;;;;;9.05;2.78;;;5.00;99.90;;;;;;5081904;28;20419;-67
2021/10/22 01:22:21;;;;;;;7.57;2.58;;;5.00;99.90;;;;;;5087003;28;20036;-67
2021/10/22 01:24:49;;;;;;;5.82;3.28;;;5.00;99.90;;;;;;5087409;28;20067;-68
2021/10/22 01:27:16;;;;;;;7.28;3.00;;;5.00;99.90;;;;;;5092388;28;20044;-68
2021/10/22 01:29:43;;;;;;;10.32;3.30;;;5.10;99.90;;;;;;5094598;28;20059;-67
2021/10/22 01:32:10;;;;;;;6.15;2.40;;;5.10;99.90;;;;;;5089094;28;20445;-68
2021/10/22 01:34:37;;;;;;;8.65;2.85;;;5.10;99.90;;;;;;5090613;28;20048;-67
2021/10/22 01:37:04;;;;;;;7.22;2.90;;;5.10;99.90;;;;;;5089992;28;20044;-67
2021/10/22 01:39:31;;;;;;;7.80;2.78;;;5.10;99.90;;;;;;5092970;28;20078;-68
2021/10/22 01:41:58;;;;;;;6.18;2.90;;;5.20;99.90;;;;;;5091426;28;20480;-68
2021/10/22 01:44:24;;;;;;;6.18;2.35;;;5.20;99.90;;;;;;5093275;28;20461;-68
2021/10/22 01:46:52;;;;;;;13.70;4.68;;;5.20;99.90;;;;;;5092332;28;20052;-68
2021/10/22 01:49:19;;;;;;;8.38;2.72;;;5.20;99.90;;;;;;5089644;28;20119;-68
2021/10/22 01:51:46;;;;;;;12.52;3.10;;;5.20;99.90;;;;;;5090444;28;20526;-68
2021/10/22 01:54:13;;;;;;;9.45;3.00;;;5.20;99.90;;;;;;5091507;28;20048;-68
2021/10/22 01:56:40;;;;;;;10.65;3.20;;;5.20;99.90;;;;;;5091999;28;20040;-68
2021/10/22 01:59:07;;;;;;;7.75;3.20;;;5.20;99.90;;;;;;5095304;28;20055;-68
2021/10/22 02:01:34;;;;;;;9.23;2.60;;;5.20;99.90;;;;;;5091422;28;20048;-67
2021/10/22 02:04:01;;;;;;;9.95;3.60;;;5.20;99.90;;;;;;5092103;28;20048;-68
2021/10/22 02:06:28;;;;;;;10.18;2.88;;;5.20;99.90;;;;;;5090841;28;20108;-69
2021/10/22 02:08:55;;;;;;;5.60;2.65;;;5.20;99.90;;;;;;5092784;28;20492;-67
2021/10/22 02:11:21;;;;;;;8.57;2.80;;;5.20;99.90;;;;;;5092253;28;20137;-68
2021/10/22 02:13:49;;;;;;;10.63;4.15;;;5.20;99.90;;;;;;5091896;28;20074;-67
2021/10/22 02:16:16;;;;;;;10.63;2.50;;;5.20;99.90;;;;;;5091844;28;20531;-67
2021/10/22 02:18:43;;;;;;;11.20;2.50;;;5.20;99.90;;;;;;5089648;28;20118;-67
2021/10/22 02:21:10;;;;;;;18.38;2.97;;;5.30;99.90;;;;;;5087706;28;20156;-67
2021/10/22 02:23:37;;;;;;;12.00;3.78;;;5.30;99.90;;;;;;5073735;28;20415;-67
2021/10/22 02:26:04;;;;;;;7.32;3.10;;;5.30;99.90;;;;;;5090681;28;20185;-67
2021/10/22 02:28:35;;;;;;;8.85;2.78;;;5.40;99.90;;;;;;5092286;28;20063;-66
2021/10/22 02:31:02;;;;;;;10.93;2.50;;;5.40;99.90;;;;;;5090302;28;20505;-67
2021/10/22 02:33:29;;;;;;;10.82;3.60;;;5.40;99.90;;;;;;5089398;28;20048;-66
2021/10/22 02:35:56;;;;;;;9.68;3.53;;;5.40;99.90;;;;;;5089530;28;20055;-66
2021/10/22 02:38:23;;;;;;;12.68;3.97;;;5.50;99.90;;;;;;5089582;28;20139;-66
2021/10/22 02:40:50;;;;;;;13.52;3.00;;;5.50;99.90;;;;;;5072801;28;20040;-68
2021/10/22 02:43:17;;;;;;;12.02;3.30;;;5.50;99.90;;;;;;5090788;28;20040;-67
2021/10/22 02:45:44;;;;;;;8.43;2.80;;;5.50;99.90;;;;;;5090912;28;20048;-67
2021/10/22 02:48:12;;;;;;;10.30;2.53;;;5.60;99.90;;;;;;5090106;28;20055;-67
2021/10/22 02:50:39;;;;;;;13.73;4.18;;;5.60;99.90;;;;;;5088867;28;20040;-67
2021/10/22 02:53:06;;;;;;;7.93;3.13;;;5.60;99.90;;;;;;5089444;28;20105;-67
2021/10/22 02:55:33;;;;;;;7.35;2.28;;;5.70;99.90;;;;;;5091466;28;20052;-67
2021/10/22 02:58:00;;;;;;;13.80;3.08;;;5.70;99.90;;;;;;5091451;28;20374;-69
2021/10/22 03:00:27;;;;;;;11.57;3.00;;;5.70;99.90;;;;;;5089107;28;20492;-67
2021/10/22 03:02:54;;;;;;;13.40;2.95;;;5.70;99.90;;;;;;5087485;28;20127;-67
2021/10/22 03:05:21;;;;;;;10.50;2.42;;;5.70;99.90;;;;;;5072685;28;20473;-67
2021/10/22 03:07:48;;;;;;;10.00;3.47;;;5.70;99.90;;;;;;5082875;28;20114;-66
2021/10/22 03:10:15;;;;;;;9.23;3.10;;;5.70;99.90;;;;;;5089631;28;20051;-67
2021/10/22 03:12:42;;;;;;;11.13;2.55;;;5.60;99.90;;;;;;5090995;28;20052;-67
2021/10/22 03:15:09;;;;;;;11.57;3.42;;;5.70;99.90;;;;;;5090978;28;20084;-66
2021/10/22 03:17:36;;;;;;;10.48;3.08;;;5.70;99.90;;;;;;5091211;28;20059;-66
2021/10/22 03:20:03;;;;;;;9.85;2.60;;;5.60;99.90;;;;;;5089649;28;20088;-66
2021/10/22 03:22:31;;;;;;;10.35;2.70;;;5.70;99.90;;;;;;5088235;28;20055;-67
2021/10/22 03:24:58;;;;;;;16.95;2.88;;;5.70;99.90;;;;;;5088642;28;20043;-66
2021/10/22 03:27:26;;;;;;;8.52;2.13;;;5.70;99.90;;;;;;5091097;28;20047;-66
2021/10/22 03:29:54;;;;;;;10.90;3.10;;;5.70;99.90;;;;;;5089412;28;20084;-66
2021/10/22 03:32:21;;;;;;;10.50;2.55;;;5.70;99.90;;;;;;5093948;28;20044;-67
2021/10/22 03:34:48;;;;;;;7.75;2.40;;;5.70;99.90;;;;;;5088281;28;20040;-67
2021/10/22 03:37:15;;;;;;;12.85;2.85;;;5.70;99.90;;;;;;5091724;28;20051;-66
2021/10/22 03:39:43;;;;;;;11.10;2.55;;;5.80;99.90;;;;;;5090277;28;20056;-67
2021/10/22 03:42:10;;;;;;;9.27;2.88;;;5.70;99.90;;;;;;5088733;28;20047;-66
2021/10/22 03:44:37;;;;;;;7.95;3.25;;;5.70;99.90;;;;;;5089331;28;20044;-65
2021/10/22 03:47:05;;;;;;;7.57;2.70;;;5.70;99.90;;;;;;5089429;28;20048;-66
2021/10/22 03:49:32;;;;;;;8.43;3.10;;;5.70;99.90;;;;;;5089531;28;20395;-67
2021/10/22 03:51:59;;;;;;;12.15;3.00;;;5.70;99.90;;;;;;5087807;28;20499;-66
2021/10/22 03:54:26;;;;;;;7.72;2.25;;;5.70;99.90;;;;;;5088600;28;20040;-68
2021/10/22 03:56:53;;;;;;;7.03;2.67;;;5.70;99.90;;;;;;5089964;28;20113;-66
2021/10/22 03:59:20;;;;;;;6.93;2.63;;;5.70;99.90;;;;;;5089004;28;20055;-66
2021/10/22 04:01:49;;;;;;;9.88;3.28;;;5.70;99.90;;;;;;5090044;28;20379;-66
2021/10/22 04:04:17;;;;;;;12.20;3.17;;;5.70;99.90;;;;;;5088356;28;20103;-66
2021/10/22 04:06:45;;;;;;;14.52;4.10;;;5.70;99.90;;;;;;5088101;28;20126;-67
2021/10/22 04:09:15;;;;;;;13.57;3.80;;;5.60;99.90;;;;;;5089044;28;20087;-66
2021/10/22 04:11:42;;;;;;;10.35;3.10;;;5.60;99.90;;;;;;5088594;28;20426;-67
2021/10/22 04:14:09;;;;;;;6.22;2.47;;;5.70;99.90;;;;;;5089737;28;20044;-66
2021/10/22 04:16:36;;;;;;;12.05;3.03;;;5.70;99.90;;;;;;5090571;28;20059;-66
2021/10/22 04:19:03;;;;;;;14.68;4.18;;;5.70;99.90;;;;;;5087981;28;20418;-66
2021/10/22 04:21:30;;;;;;;14.23;2.97;;;5.70;99.90;;;;;;5089550;28;20048;-66
2021/10/22 04:23:57;;;;;;;9.38;2.67;;;5.70;99.90;;;;;;5087632;28;20105;-67
2021/10/22 04:26:24;;;;;;;13.48;4.88;;;5.70;99.90;;;;;;5089742;28;20051;-66
2021/10/22 04:28:51;;;;;;;8.73;2.35;;;5.70;99.90;;;;;;5087907;28;20052;-66
2021/10/22 04:31:18;;;;;;;10.25;2.60;;;5.60;99.90;;;;;;5088634;28;20075;-65
2021/10/22 04:33:45;;;;;;;11.20;2.92;;;5.60;99.90;;;;;;5089196;28;20445;-66
2021/10/22 04:36:13;;;;;;;17.35;4.35;;;5.60;99.90;;;;;;5094828;28;20046;-66
2021/10/22 04:41:25;;;;;;;11.13;2.83;;;5.70;99.90;;;;;;5086845;28;20055;-66
2021/10/22 04:43:52;;;;;;;9.77;2.58;;;5.70;99.90;;;;;;5088681;28;20056;-66
2021/10/22 04:46:19;;;;;;;9.07;2.80;;;5.70;99.90;;;;;;5088022;28;20051;-68
2021/10/22 04:48:46;;;;;;;5.82;2.92;;;5.70;99.90;;;;;;5076599;28;20044;-67
2021/10/22 04:51:14;;;;;;;9.25;3.42;;;5.70;99.90;;;;;;5087109;28;20078;-66
2021/10/22 04:53:41;;;;;;;9.48;2.65;;;5.80;99.90;;;;;;5087954;28;20484;-66
2021/10/22 04:56:08;;;;;;;9.40;3.17;;;5.80;99.90;;;;;;5088955;28;20040;-66
2021/10/22 04:58:35;;;;;;;11.68;2.58;;;5.80;99.90;;;;;;5092311;28;20126;-67
2021/10/22 05:01:02;;;;;;;13.10;3.28;;;5.80;99.90;;;;;;5093000;28;20074;-67
2021/10/22 05:03:29;;;;;;;15.02;2.72;;;5.90;99.90;;;;;;5090980;28;20056;-66
2021/10/22 05:05:56;;;;;;;9.05;2.55;;;5.90;99.90;;;;;;5092091;28;20405;-66
2021/10/22 05:08:23;;;;;;;14.25;4.03;;;5.90;99.90;;;;;;5091539;28;20123;-66
2021/10/22 05:10:50;;;;;;;8.80;2.85;;;5.80;99.90;;;;;;5092745;28;20055;-67
2021/10/22 05:13:17;;;;;;;13.10;2.97;;;5.80;99.90;;;;;;5092296;28;20399;-66
2021/10/22 05:15:44;;;;;;;12.05;3.30;;;5.80;99.90;;;;;;5092542;28;20574;-67
2021/10/22 05:18:11;;;;;;;9.02;3.25;;;5.80;99.90;;;;;;5093078;28;20732;-66
2021/10/22 05:20:38;;;;;;;10.93;2.80;;;5.80;99.90;;;;;;5092398;28;20067;-66
2021/10/22 05:23:08;;;;;;;7.75;2.47;;;5.80;99.90;;;;;;5090744;28;20079;-66
2021/10/22 05:25:35;;;;;;;13.50;5.72;;;5.70;99.90;;;;;;5092263;28;20052;-66
2021/10/22 05:28:02;;;;;;;11.00;2.90;;;5.70;99.90;;;;;;5092676;28;20487;-67
2021/10/22 05:30:29;;;;;;;11.02;3.50;;;5.70;99.90;;;;;;5092969;28;20040;-67
2021/10/22 05:32:57;;;;;;;9.30;2.72;;;5.70;99.90;;;;;;5074875;28;20100;-66
2021/10/22 05:35:24;;;;;;;10.05;3.15;;;5.70;99.90;;;;;;5084849;28;20044;-67
2021/10/22 05:37:51;;;;;;;11.77;3.58;;;5.80;99.90;;;;;;5091770;28;20048;-66
2021/10/22 05:40:17;;;;;;;9.05;3.00;;;5.70;99.90;;;;;;5092317;28;20088;-66
2021/10/22 05:42:44;;;;;;;6.50;2.63;;;5.80;99.90;;;;;;5093425;28;20052;-66
2021/10/22 05:45:11;;;;;;;12.50;2.75;;;5.70;99.90;;;;;;5092080;28;20048;-66
2021/10/22 05:47:38;;;;;;;8.80;3.15;;;5.70;99.90;;;;;;5091434;28;20048;-67
2021/10/22 05:50:08;;;;;;;12.18;3.65;;;5.70;99.90;;;;;;5092903;28;20376;-66
2021/10/22 05:52:35;;;;;;;;;;;5.70;99.90;;;;;;5091251;28;20503;-68
2021/10/22 05:55:03;;;;;;;12.57;3.20;;;5.70;99.90;;;;;;5092304;28;20007;-66
2021/10/22 05:57:30;;;;;;;8.10;2.30;;;5.70;99.90;;;;;;5092571;28;20040;-66
2021/10/22 05:59:57;;;;;;;17.25;4.95;;;5.70;99.90;;;;;;5092058;28;20121;-66
2021/10/22 06:02:24;;;;;;;7.70;2.40;;;5.70;99.90;;;;;;5092711;28;20141;-67
2021/10/22 06:04:51;;;;;;;6.22;2.35;;;5.70;99.90;;;;;;5092062;28;20091;-66
2021/10/22 06:07:18;;;;;;;6.25;2.67;;;5.70;99.90;;;;;;5092053;28;20446;-69
2021/10/22 06:09:45;;;;;;;12.82;2.90;;;5.70;99.90;;;;;;5090207;28;20076;-66
2021/10/22 06:12:13;;;;;;;11.25;3.00;;;5.70;99.90;;;;;;5092354;28;20055;-65
2021/10/22 06:14:40;;;;;;;9.60;3.13;;;5.80;99.90;;;;;;5092123;28;20146;-67
2021/10/22 06:17:07;;;;;;;7.82;2.70;;;5.80;99.90;;;;;;5089825;28;20122;-68
2021/10/22 06:19:40;;;;;;;9.50;2.22;;;5.80;99.90;;;;;;5090448;28;20040;-68
2021/10/22 06:22:15;;;;;;;10.43;2.55;;;5.80;99.90;;;;;;5090318;28;20055;-67
2021/10/22 06:24:42;;;;;;;9.50;3.17;;;5.70;99.90;;;;;;5093082;28;20040;-66
2021/10/22 06:27:09;;;;;;;7.43;2.45;;;5.70;99.90;;;;;;5092644;28;20044;-68
2021/10/22 06:29:36;;;;;;;12.18;2.97;;;5.70;99.90;;;;;;5090880;28;20090;-67
2021/10/22 06:32:03;;;;;;;7.07;2.53;;;5.70;99.90;;;;;;5074062;28;20047;-67
2021/10/22 06:34:30;;;;;;;11.75;2.90;;;5.70;99.90;;;;;;5091311;28;20054;-67
2021/10/22 06:36:57;;;;;;;11.13;2.70;;;5.70;99.90;;;;;;5089412;28;20502;-67
2021/10/22 06:39:24;;;;;;;7.93;3.30;;;5.70;99.90;;;;;;5090199;28;20377;-69
2021/10/22 06:41:51;;;;;;;13.60;2.72;;;5.60;99.90;;;;;;5089489;28;20048;-67
2021/10/22 06:44:18;;;;;;;10.70;2.58;;;5.70;99.90;;;;;;5090953;28;20101;-68
2021/10/22 06:46:45;;;;;;;12.27;2.75;;;5.70;99.90;;;;;;5092016;28;20052;-69
2021/10/22 06:49:13;;;;;;;9.50;3.55;;;5.80;99.90;;;;;;5090566;28;20083;-67
2021/10/22 06:51:40;;;;;;;7.13;2.20;;;5.80;99.90;;;;;;5088936;28;20060;-67
2021/10/22 06:54:08;;;;;;;12.82;3.25;;;5.80;99.90;;;;;;5090880;28;20048;-68
2021/10/22 06:56:35;;;;;;;5.15;1.90;;;5.80;99.90;;;;;;5090810;28;20048;-67
2021/10/22 06:59:02;;;;;;;7.45;2.40;;;5.80;99.90;;;;;;5091947;28;20052;-67
2021/10/22 07:01:28;;;;;;;9.98;2.30;;;5.90;99.90;;;;;;5071318;28;20052;-67
2021/10/22 07:03:56;;;;;;;8.05;2.88;;;5.90;99.90;;;;;;5084798;28;20056;-67
2021/10/22 07:08:53;;;;;;;;;;;6.10;99.90;;;;;;5092100;28;20052;-67
2021/10/22 07:11:20;;;;;;;6.18;2.90;;;6.10;99.90;;;;;;5091342;28;19926;-68
2021/10/22 07:13:52;;;;;;;9.00;3.88;;;6.20;99.90;;;;;;5089232;28;20127;-68
2021/10/22 07:16:22;;;;;;;9.75;2.63;;;6.40;99.90;;;;;;5072877;28;20044;-67
2021/10/22 07:18:50;;;;;;;6.95;1.90;;;6.50;99.90;;;;;;5090411;28;20044;-67
2021/10/22 07:21:18;;;;;;;6.05;1.88;;;6.60;99.70;;;;;;5090535;28;20514;-66
2021/10/22 07:23:47;;;;;;;4.70;1.92;;;6.60;99.30;;;;;;5090938;28;20113;-66
2021/10/22 07:26:15;;;;;;;9.45;2.38;;;6.80;99.20;;;;;;5091143;28;20055;-66
2021/10/22 07:28:42;;;;;;;8.77;2.42;;;6.80;98.60;;;;;;5088964;28;20055;-66
2021/10/22 07:31:12;;;;;;;6.03;2.83;;;6.90;98.40;;;;;;5087890;28;20036;-66
2021/10/22 07:33:40;;;;;;;11.98;2.10;;;7.00;98.00;;;;;;5090861;28;20151;-66
2021/10/22 07:36:12;;;;;;;7.20;2.08;;;7.10;97.60;;;;;;5089422;28;20042;-66
2021/10/22 07:38:41;;;;;;;6.30;2.33;;;7.10;97.40;;;;;;5090557;28;20047;-66
2021/10/22 07:41:08;;;;;;;12.07;2.33;;;7.20;97.10;;;;;;5082934;28;20087;-66
2021/10/22 07:43:37;;;;;;;8.55;2.55;;;7.30;97.30;;;;;;5091104;28;20492;-66
2021/10/22 07:46:03;;;;;;;7.32;2.03;;;7.30;97.20;;;;;;5089346;28;20063;-66
2021/10/22 07:48:31;;;;;;;14.48;2.63;;;7.40;96.30;;;;;;5092092;28;20056;-66
2021/10/22 07:50:58;;;;;;;6.60;2.00;;;7.40;96.60;;;;;;5088484;28;20078;-66
2021/10/22 07:53:25;;;;;;;7.72;2.53;;;7.50;97.50;;;;;;5088791;28;20055;-76
2021/10/22 07:55:52;;;;;;;54.03;36.80;;;7.60;96.50;;;;;;5089989;28;20047;-72
2021/10/22 07:58:19;;;;;;;99.13;71.63;;;7.60;97.00;;;;;;5089728;28;20188;-73
2021/10/22 08:00:46;;;;;;;18.52;12.15;;;7.70;96.40;;;;;;5089782;28;20351;-78
2021/10/22 08:03:13;;;;;;;5.90;3.05;;;7.70;96.40;;;;;;5071849;28;20048;-75
2021/10/22 08:05:40;;;;;;;8.68;2.50;;;7.70;96.40;;;;;;5090474;28;20099;-75
2021/10/22 08:08:10;;;;;;;6.50;2.55;;;7.80;96.20;;;;;;5072174;28;20097;-76
2021/10/22 08:10:40;;;;;;;6.97;1.90;;;7.80;95.60;;;;;;5089245;28;20105;-75
2021/10/22 08:13:11;;;;;;;7.15;2.10;;;7.80;96.10;;;;;;5072662;28;20119;-76
2021/10/22 08:15:44;;;;;;;8.35;2.28;;;7.80;95.90;;;;;;5086774;28;20122;-75
2021/10/22 08:18:11;;;;;;;5.93;2.28;;;7.80;95.90;;;;;;5087548;28;20498;-75
2021/10/22 08:20:49;;;;;;;7.22;2.60;;;7.80;95.40;;;;;;5086902;28;20054;-75
2021/10/22 08:23:17;;;;;;;6.90;1.95;;;7.90;96.00;;;;;;5086125;28;20047;-77
2021/10/22 08:25:45;;;;;;;10.70;2.40;;;8.00;95.90;;;;;;5090965;28;20056;-76
2021/10/22 08:28:12;;;;;;;8.38;2.38;;;8.10;95.90;;;;;;5089977;28;20471;-76
2021/10/22 08:30:40;;;;;;;7.30;2.58;;;8.20;94.90;;;;;;5087427;28;20063;-75
2021/10/22 08:33:10;;;;;;;7.47;1.85;;;8.30;95.30;;;;;;5086308;28;20040;-75
2021/10/22 08:35:37;;;;;;;7.55;2.35;;;8.30;94.40;;;;;;5090916;28;20290;-72
2021/10/22 08:38:06;;;;;;;13.20;2.33;;;8.40;94.80;;;;;;5088094;28;20146;-75
2021/10/22 08:40:33;;;;;;;6.07;2.40;;;8.30;94.50;;;;;;5089163;28;20048;-75
2021/10/22 08:43:00;;;;;;;4.30;1.80;;;8.20;94.60;;;;;;5088454;28;20480;-76
2021/10/22 08:45:27;;;;;;;5.30;2.95;;;8.20;94.30;;;;;;5089076;28;20047;-76
2021/10/22 08:47:54;;;;;;;5.03;2.15;;;8.20;94.20;;;;;;5088652;28;20048;-75
2021/10/22 08:50:21;;;;;;;9.23;2.70;;;8.20;94.40;;;;;;5087715;28;20121;-75
2021/10/22 08:52:49;;;;;;;4.03;1.80;;;8.20;94.60;;;;;;5089899;28;20044;-75
2021/10/22 08:55:17;;;;;;;8.10;2.15;;;8.20;94.70;;;;;;5088270;28;20078;-75
2021/10/22 08:57:46;;;;;;;11.48;3.22;;;8.30;94.30;;;;;;5089519;28;20121;-76
2021/10/22 09:00:14;;;;;;;6.17;2.27;;;8.30;94.20;;;;;;5072280;28;20074;-76
2021/10/22 09:02:44;;;;;;;4.20;2.87;;;8.40;94.10;;;;;;5088268;28;20051;-75
2021/10/22 09:05:23;;;;;;;7.93;1.98;;;8.50;94.10;;;;;;5087731;28;20055;-75
2021/10/22 09:07:54;;;;;;;10.05;2.03;;;8.60;93.50;;;;;;5088789;28;20058;-76
2021/10/22 09:10:23;;;;;;;6.15;2.08;;;8.60;93.70;;;;;;5072141;28;20126;-75
2021/10/22 09:12:54;;;;;;;5.43;2.00;;;8.70;92.50;;;;;;5089298;28;20063;-76
2021/10/22 09:15:26;;;;;;;6.40;2.10;;;8.90;92.80;;;;;;5089722;28;20420;-75
2021/10/22 09:17:55;;;;;;;4.85;2.25;;;9.00;92.30;;;;;;5087835;28;20043;-75
2021/10/22 09:20:22;;;;;;;5.20;2.10;;;9.10;92.80;;;;;;5089334;28;20040;-75
2021/10/22 09:23:09;;;;;;;10.18;2.17;;;9.10;91.30;;;;;;5087983;28;20048;-76
2021/10/22 09:25:40;;;;;;;3.80;1.70;;;9.20;91.80;;;;;;5088895;28;20866;-76
2021/10/22 09:28:07;;;;;;;5.10;2.00;;;9.20;91.80;;;;;;5089951;28;20048;-73
2021/10/22 09:30:45;;;;;;;9.70;2.22;;;9.30;92.10;;;;;;5088306;28;20048;-76
2021/10/22 09:33:12;;;;;;;7.50;2.10;;;9.30;91.00;;;;;;5089136;28;20074;-75
2021/10/22 09:35:46;;;;;;;9.70;2.30;;;9.40;91.60;;;;;;5088767;28;20044;-75
2021/10/22 09:38:20;;;;;;;2.95;2.03;;;9.40;91.80;;;;;;5087729;28;20506;-76
2021/10/22 09:40:57;;;;;;;8.77;2.40;;;9.40;91.70;;;;;;5072511;28;20094;-75
2021/10/22 09:43:34;;;;;;;9.10;3.30;;;9.50;91.40;;;;;;5093040;28;20054;-75
2021/10/22 09:46:12;;;;;;;7.63;2.67;;;9.60;91.20;;;;;;5071944;28;20132;-76
2021/10/22 09:48:45;;;;;;;4.50;1.80;;;9.60;91.30;;;;;;5092552;28;20047;-76
2021/10/22 09:51:28;;;;;;;7.90;1.90;;;9.70;92.00;;;;;;5090969;28;20044;-77
2021/10/22 09:53:57;;;;;;;5.80;2.65;;;9.70;90.80;;;;;;5075262;28;20063;-77
2021/10/22 09:56:25;;;;;;;7.45;2.17;;;9.70;91.70;;;;;;5092618;28;20044;-76
2021/10/22 09:58:54;;;;;;;9.70;2.60;;;9.70;91.10;;;;;;5093158;28;20052;-75
2021/10/22 10:01:21;;;;;;;7.70;2.05;;;9.80;91.50;;;;;;5091160;28;20070;-77
2021/10/22 10:03:51;;;;;;;12.18;2.50;;;9.80;91.90;;;;;;5090474;28;20132;-77
2021/10/22 10:06:18;;;;;;;3.17;1.70;;;9.80;90.90;;;;;;5070803;28;20053;-77
2021/10/22 10:08:45;;;;;;;10.10;3.30;;;9.90;91.60;;;;;;5074488;28;20491;-77
2021/10/22 10:11:12;;;;;;;6.80;1.65;;;9.90;91.20;;;;;;5091258;28;20048;-77
2021/10/22 10:13:39;;;;;;;8.27;2.10;;;9.90;91.00;;;;;;5074784;28;20092;-77
2021/10/22 10:16:07;;;;;;;6.18;1.70;;;9.90;89.30;;;;;;5089656;28;20046;-76
2021/10/22 10:18:42;;;;;;;4.35;1.70;;;10.00;90.70;;;;;;5092478;28;20051;-75
2021/10/22 10:21:12;;;;;;;13.60;1.90;;;10.00;91.00;;;;;;5091769;28;20066;-77
2021/10/22 10:23:41;;;;;;;7.75;2.50;;;10.00;90.10;;;;;;5080745;28;20052;-78
2021/10/22 10:26:31;;;;;;;4.43;1.77;;;10.00;90.50;;;;;;5111909;28;20066;-78
2021/10/22 10:29:00;;;;;;;5.63;1.92;;;10.10;90.90;;;;;;5095638;28;20092;-76
2021/10/22 10:31:29;;;;;;;7.47;1.70;;;10.10;91.00;;;;;;5090324;28;20048;-77
2021/10/22 10:33:57;;;;;;;12.52;4.57;;;10.10;90.60;;;;;;5079900;28;20487;-77
2021/10/22 10:36:44;;;;;;;5.00;1.88;;;10.10;91.00;;;;;;5082898;28;20036;-76
2021/10/22 10:39:11;;;;;;;8.30;2.70;;;10.10;90.10;;;;;;5072495;28;20138;-77
2021/10/22 10:41:38;;;;;;;7.50;2.33;;;10.10;90.50;;;;;;5072101;28;20059;-77
2021/10/22 10:44:30;;;;;;;6.88;2.00;;;10.10;90.30;;;;;;5089208;28;20058;-79
2021/10/22 10:46:57;;;;;;;4.30;1.58;;;10.20;90.40;;;;;;5079159;28;20056;-77
2021/10/22 10:49:46;;;;;;;8.82;1.90;;;10.30;90.50;;;;;;5071850;28;20102;-74
2021/10/22 10:52:39;;;;;;;7.55;3.60;;;10.30;90.40;;;;;;5072188;28;20055;-72
2021/10/22 10:58:07;;;;;;;4.68;1.92;;;10.50;88.30;;;;;;5091734;28;20050;-72
2021/10/22 11:00:54;;;;;;;5.63;2.53;;;10.60;89.20;;;;;;5090416;28;20408;-71
2021/10/22 11:03:25;;;;;;;7.40;2.72;;;10.60;89.80;;;;;;5089309;28;20048;-72
2021/10/22 11:06:01;;;;;;;4.60;2.05;;;10.60;89.40;;;;;;5074244;28;20089;-74
2021/10/22 11:08:29;;;;;;;4.07;1.90;;;10.60;88.20;;;;;;5072805;28;20048;-69
2021/10/22 11:11:05;;;;;;;5.05;2.05;;;10.60;89.80;;;;;;5093309;28;20048;-70
2021/10/22 11:13:47;;;;;;;6.00;2.20;;;10.60;90.20;;;;;;5089314;28;20056;-69
2021/10/22 11:16:20;;;;;;;4.30;1.55;;;10.60;90.00;;;;;;5088399;28;20040;-71
2021/10/22 11:18:58;;;;;;;4.97;1.70;;;10.70;90.10;;;;;;5089040;28;20426;-70
2021/10/22 11:21:25;;;;;;;4.82;2.45;;;10.70;90.30;;;;;;5073901;28;20044;-79
2021/10/22 11:23:53;;;;;;;7.05;2.25;;;10.70;90.10;;;;;;5069811;28;20082;-73
2021/10/22 11:26:20;;;;;;;7.32;1.50;;;10.80;89.00;;;;;;5068256;28;20047;-73
2021/10/22 11:28:52;;;;;;;5.88;1.77;;;10.90;87.70;;;;;;5089478;28;20063;-75
2021/10/22 11:31:45;;;;;;;3.88;1.80;;;10.90;90.10;;;;;;5070522;28;20067;-70
2021/10/22 11:34:27;;;;;;;5.50;1.73;;;11.00;89.20;;;;;;5088078;28;20134;-68
2021/10/22 11:37:12;;;;;;;3.38;1.50;;;11.00;89.10;;;;;;5088953;28;20077;-72
2021/10/22 11:39:51;;;;;;;18.63;10.63;;;11.00;89.40;;;;;;5079977;28;20063;-67
2021/10/22 11:42:31;;;;;;;11.05;3.67;;;11.00;89.40;;;;;;5088061;28;20044;-70
2021/10/22 11:45:07;;;;;;;5.32;1.70;;;11.10;89.30;;;;;;5067849;28;20064;-70
2021/10/22 11:47:41;;;;;;;6.35;2.28;;;11.20;89.00;;;;;;5087473;28;20055;-68
2021/10/22 11:50:21;;;;;;;6.40;2.60;;;11.20;89.30;;;;;;5088977;28;20051;-67
2021/10/22 11:52:59;;;;;;;4.90;1.60;;;11.20;87.70;;;;;;5091650;27;20052;-68
2021/10/22 11:55:27;;;;;;;24.23;17.40;;;11.40;89.70;;;;;;5087800;28;20048;-67
2021/10/22 11:57:55;;;;;;;39.65;28.00;;;11.40;88.40;;;;;;5084296;28;20051;-67
2021/10/22 12:00:25;;;;;;;9.77;5.07;;;11.40;88.70;;;;;;5075506;28;20396;-66
2021/10/22 12:02:52;;;;;;;4.22;2.55;;;11.50;89.70;;;;;;5082051;28;20044;-68
2021/10/22 12:05:20;;;;;;;34.83;28.25;;;11.60;88.90;;;;;;5083037;28;20086;-68
2021/10/22 12:07:48;;;;;;;94.05;68.00;;;11.60;89.10;;;;;;5082616;28;20077;-69
2021/10/22 12:10:16;;;;;;;8.30;4.07;;;11.70;87.70;;;;;;5086095;28;20390;-68
2021/10/22 12:12:48;;;;;;;4.60;1.95;;;11.70;86.30;;;;;;5086565;28;20736;-68
2021/10/22 12:15:19;;;;;;;10.88;1.52;;;11.80;87.60;;;;;;5086549;28;20090;-66
2021/10/22 12:17:47;;;;;;;4.00;1.92;;;12.00;87.60;;;;;;5086849;28;20048;-69
2021/10/22 12:20:14;;;;;;;4.63;1.50;;;12.20;87.80;;;;;;5053411;28;20044;-67
2021/10/22 12:22:44;;;;;;;5.30;1.80;;;12.40;86.90;;;;;;5084209;28;20079;-71
2021/10/22 12:25:16;;;;;;;4.97;2.42;;;12.40;84.60;;;;;;5086584;28;20062;-68
2021/10/22 12:27:53;;;;;;;5.80;2.00;;;12.50;85.30;;;;;;5088098;28;20048;-70
2021/10/22 12:30:23;;;;;;;5.15;2.25;;;12.50;84.50;;;;;;5071368;28;20051;-71
2021/10/22 12:32:53;;;;;;;6.63;1.50;;;12.50;85.00;;;;;;5086971;28;20066;-69
2021/10/22 12:35:28;;;;;;;2.80;1.13;;;12.60;85.30;;;;;;5090206;28;20134;-68
2021/10/22 12:38:13;;;;;;;4.30;2.22;;;12.50;85.10;;;;;;5070712;28;20279;-70
2021/10/22 12:40:47;;;;;;;6.07;1.70;;;12.60;85.50;;;;;;5071509;28;20044;-69
2021/10/22 12:43:22;;;;;;;3.97;2.03;;;12.60;84.90;;;;;;5082771;28;20046;-67
2021/10/22 12:46:04;;;;;;;3.80;1.70;;;12.50;84.90;;;;;;5088592;28;20131;-68
2021/10/22 12:48:35;;;;;;;4.75;1.50;;;12.40;84.10;;;;;;5068733;28;20696;-69
2021/10/22 12:51:12;;;;;;;5.07;1.50;;;12.50;85.60;;;;;;5079499;28;20062;-70
2021/10/22 12:53:45;;;;;;;6.00;1.65;;;12.60;83.00;;;;;;5071863;28;20097;-71
2021/10/22 12:56:14;;;;;;;4.75;2.25;;;12.80;83.90;;;;;;5085983;28;20036;-71
2021/10/22 12:58:54;;;;;;;4.13;1.50;;;12.90;82.70;;;;;;5070476;28;20070;-74
2021/10/22 13:01:21;;;;;;;9.40;1.92;;;13.00;82.20;;;;;;5086954;28;20067;-72
2021/10/22 13:03:57;;;;;;;7.07;2.22;;;13.00;81.00;;;;;;5086330;28;20055;-71
2021/10/22 13:06:30;;;;;;;3.88;1.75;;;13.00;81.60;;;;;;5086753;28;20063;-75
2021/10/22 13:12:43;;;;;;;6.28;1.35;;;13.10;83.60;;;;;;5088905;28;20047;-72
2021/10/22 13:22:57;;;;;;;3.78;1.83;;;12.90;83.50;;;;;;5092944;28;20056;-74